Time;durP1;ratioP1;P1;durP2;ratioP2;P2;SDS_P1;SDS_P2;PMS_P1;PMS_P2;Temp;Humidity;BMP_temperature;BMP_pressure;BME280_temperature;BME280_humidity;BME280_pressure;Samples;Min_cycle;Max_cycle;Signal;HPM_P1;HPM_P2
2023/01/19 00:01:24;;;;;;;11.77;7.07;;;23.20;59.50;;;;;;5090590;28;20040;-78
2023/01/19 00:03:50;;;;;;;11.18;6.10;;;23.20;59.60;;;;;;5091118;28;20077;-77
2023/01/19 00:06:17;;;;;;;9.48;6.75;;;23.20;59.60;;;;;;5091221;28;20040;-77
2023/01/19 00:08:44;;;;;;;13.32;7.43;;;23.10;59.70;;;;;;5091336;28;20056;-77
2023/01/19 00:11:11;;;;;;;14.00;7.03;;;23.10;59.80;;;;;;5091050;28;20537;-76
2023/01/19 00:13:38;;;;;;;10.50;7.07;;;23.10;59.80;;;;;;5091142;28;20058;-77
2023/01/19 00:16:05;;;;;;;14.77;7.07;;;23.00;59.90;;;;;;5091201;28;20032;-76
2023/01/19 00:18:32;;;;;;;12.45;6.07;;;23.00;60.00;;;;;;5090984;28;20044;-77
2023/01/19 00:20:58;;;;;;;7.68;4.93;;;23.00;60.10;;;;;;5091347;28;20369;-77
2023/01/19 00:23:23;;;;;;;14.88;5.95;;;23.00;60.20;;;;;;5091028;28;20046;-77
2023/01/19 00:25:50;;;;;;;13.63;5.47;;;23.00;60.20;;;;;;5090779;28;20028;-77
2023/01/19 00:28:17;;;;;;;9.93;5.45;;;23.00;60.50;;;;;;5090973;28;20034;-76
2023/01/19 00:30:44;;;;;;;12.85;4.75;;;23.00;60.20;;;;;;5068063;28;20044;-76
2023/01/19 00:33:14;;;;;;;9.85;5.15;;;23.00;60.10;;;;;;5068061;28;20087;-76
2023/01/19 00:35:41;;;;;;;11.38;4.45;;;23.00;60.00;;;;;;5068089;28;20044;-75
2023/01/19 00:38:08;;;;;;;7.18;3.67;;;23.10;60.00;;;;;;5068324;28;20075;-76
2023/01/19 00:40:34;;;;;;;9.45;4.53;;;23.20;60.10;;;;;;5068114;28;20039;-77
2023/01/19 00:43:00;;;;;;;7.75;4.28;;;23.10;59.80;;;;;;5068275;28;20534;-77
2023/01/19 00:45:26;;;;;;;6.40;4.00;;;23.10;59.90;;;;;;5069600;28;20040;-76
2023/01/19 00:47:56;;;;;;;6.40;3.40;;;23.10;59.90;;;;;;5071829;28;20516;-76
2023/01/19 00:50:23;;;;;;;7.50;3.47;;;23.10;60.00;;;;;;5071448;28;20036;-76
2023/01/19 00:52:51;;;;;;;8.05;3.38;;;23.20;59.80;;;;;;5071575;28;20520;-76
2023/01/19 00:55:17;;;;;;;7.88;3.72;;;23.20;59.80;;;;;;5071495;28;20040;-76
2023/01/19 00:57:43;;;;;;;9.02;3.90;;;23.20;59.80;;;;;;5071455;28;20040;-76
2023/01/19 01:00:13;;;;;;;8.25;3.30;;;23.20;59.80;;;;;;5071470;28;20444;-76
2023/01/19 01:02:41;;;;;;;5.75;3.20;;;23.20;59.90;;;;;;5054696;28;20115;-76
2023/01/19 01:05:08;;;;;;;7.78;2.60;;;23.20;60.00;;;;;;5071262;28;20029;-76
2023/01/19 01:07:41;;;;;;;6.97;3.05;;;23.20;60.00;;;;;;5076783;28;20065;-76
2023/01/19 01:10:28;;;;;;;5.82;3.08;;;23.20;59.70;;;;;;5093990;28;20132;-76
2023/01/19 01:12:55;;;;;;;8.20;2.80;;;23.30;59.60;;;;;;5093831;28;20127;-76
2023/01/19 01:15:21;;;;;;;13.80;3.45;;;23.30;59.40;;;;;;5093700;28;20380;-76
2023/01/19 01:17:47;;;;;;;5.45;2.50;;;23.30;59.20;;;;;;5093746;28;20028;-76
2023/01/19 01:20:17;;;;;;;7.30;3.53;;;23.10;59.40;;;;;;5093858;28;20565;-76
2023/01/19 01:22:50;;;;;;;6.90;3.65;;;23.20;59.50;;;;;;5074632;28;20458;-76
2023/01/19 01:25:18;;;;;;;7.63;2.97;;;23.20;59.60;;;;;;5093849;28;20031;-76
2023/01/19 01:27:44;;;;;;;7.70;2.30;;;23.20;59.60;;;;;;5093741;28;20040;-76
2023/01/19 01:30:13;;;;;;;7.35;3.08;;;23.20;59.50;;;;;;5092525;28;20026;-76
2023/01/19 01:32:39;;;;;;;6.57;2.95;;;23.20;59.60;;;;;;5093388;28;20028;-76
2023/01/19 01:35:07;;;;;;;10.45;3.13;;;23.20;59.80;;;;;;5093571;28;20048;-76
2023/01/19 01:37:35;;;;;;;9.90;3.40;;;23.10;59.80;;;;;;5093390;28;20487;-76
2023/01/19 01:40:01;;;;;;;9.68;3.45;;;23.30;59.80;;;;;;5093600;28;20119;-76
2023/01/19 01:42:29;;;;;;;6.95;3.20;;;23.30;59.80;;;;;;5093318;28;20032;-76
2023/01/19 01:45:00;;;;;;;10.88;2.90;;;23.20;59.60;;;;;;5091955;28;20047;-77
2023/01/19 01:47:44;;;;;;;5.28;2.63;;;23.40;59.50;;;;;;5093649;28;20564;-76
2023/01/19 01:50:15;;;;;;;7.18;2.83;;;23.30;59.50;;;;;;5092067;28;20077;-76
2023/01/19 01:53:04;;;;;;;5.15;2.88;;;23.30;59.70;;;;;;5093143;28;20074;-76
2023/01/19 01:55:33;;;;;;;4.72;2.40;;;23.20;59.70;;;;;;5092289;28;20099;-76
2023/01/19 01:58:03;;;;;;;5.95;3.03;;;23.20;59.80;;;;;;5092766;28;20400;-76
2023/01/19 02:02:49;;;;;;;7.45;2.85;;;23.10;59.90;;;;;;5092557;28;20028;-76
2023/01/19 02:03:21;;;;;;;6.40;3.00;;;23.10;59.80;;;;;;5092930;28;20050;-76
2023/01/19 02:05:47;;;;;;;8.40;3.33;;;23.10;60.00;;;;;;5092664;28;20120;-76
2023/01/19 02:14:05;;;;;;;11.23;3.75;;;23.00;60.10;;;;;;5092616;28;20036;-76
2023/01/19 02:16:33;;;;;;;9.52;3.35;;;23.00;60.20;;;;;;5092455;28;20362;-76
2023/01/19 02:19:00;;;;;;;5.47;2.83;;;22.90;60.20;;;;;;5092680;28;20535;-76
2023/01/19 02:21:44;;;;;;;5.18;3.10;;;22.90;60.20;;;;;;5092314;28;20043;-76
2023/01/19 02:24:10;;;;;;;10.68;3.03;;;23.00;60.20;;;;;;5092579;28;20039;-76
2023/01/19 02:26:43;;;;;;;3.33;2.75;;;23.00;60.20;;;;;;5092487;28;20119;-76
2023/01/19 02:29:12;;;;;;;13.32;3.28;;;23.00;60.30;;;;;;5092579;28;20081;-75
2023/01/19 02:31:39;;;;;;;7.38;2.30;;;22.90;60.30;;;;;;5090859;28;20044;-76
2023/01/19 02:34:08;;;;;;;7.93;2.83;;;22.90;60.30;;;;;;5090938;28;20032;-76
2023/01/19 02:36:52;;;;;;;10.05;2.97;;;22.90;60.30;;;;;;5091751;28;20598;-76
2023/01/19 02:39:42;;;;;;;5.85;3.20;;;22.80;60.40;;;;;;5092328;28;20385;-76
2023/01/19 02:42:26;;;;;;;9.00;3.25;;;22.90;60.60;;;;;;5029466;28;20041;-76
2023/01/19 02:44:54;;;;;;;6.82;3.40;;;23.00;60.50;;;;;;5029283;28;20103;-76
2023/01/19 02:47:20;;;;;;;6.10;2.85;;;22.90;60.30;;;;;;5029509;28;20056;-75
2023/01/19 02:50:28;;;;;;;5.55;2.63;;;22.80;60.10;;;;;;5029349;28;20717;-76
2023/01/19 02:53:03;;;;;;;8.85;3.20;;;22.90;60.00;;;;;;4951162;29;20100;-75
2023/01/19 02:55:31;;;;;;;4.88;2.83;;;22.90;59.90;;;;;;4951214;29;20038;-76
2023/01/19 02:58:08;;;;;;;3.08;2.28;;;23.10;59.70;;;;;;4951229;29;20400;-76
2023/01/19 03:00:43;;;;;;;3.20;2.47;;;23.00;59.70;;;;;;4951482;29;20258;-76
2023/01/19 03:03:36;;;;;;;5.47;2.15;;;23.00;59.60;;;;;;4951048;29;20380;-76
2023/01/19 03:06:10;;;;;;;7.88;2.60;;;23.10;59.60;;;;;;4951105;29;20039;-76
2023/01/19 03:08:46;;;;;;;4.43;2.10;;;23.20;59.70;;;;;;4950153;28;20059;-76
2023/01/19 03:11:13;;;;;;;8.73;2.72;;;23.20;59.60;;;;;;4951116;29;20055;-76
2023/01/19 03:13:48;;;;;;;4.15;2.40;;;23.10;59.70;;;;;;4950946;29;20051;-76
2023/01/19 03:16:23;;;;;;;6.18;2.35;;;23.20;59.80;;;;;;4950696;29;20389;-76
2023/01/19 03:18:54;;;;;;;3.17;2.03;;;23.20;59.80;;;;;;4974909;28;20450;-76
2023/01/19 03:21:25;;;;;;;4.72;1.85;;;23.10;59.80;;;;;;5028816;28;20052;-76
2023/01/19 03:23:53;;;;;;;3.85;2.13;;;23.20;59.80;;;;;;5028435;28;20041;-76
2023/01/19 03:26:25;;;;;;;4.90;2.13;;;23.30;59.70;;;;;;5028916;28;20137;-76
2023/01/19 03:28:53;;;;;;;5.03;1.87;;;23.30;59.20;;;;;;5029852;28;20048;-76
2023/01/19 03:31:23;;;;;;;8.52;2.47;;;23.40;58.90;;;;;;5091602;28;20351;-76
2023/01/19 03:33:54;;;;;;;6.28;2.33;;;23.30;59.20;;;;;;5091376;28;20061;-76
2023/01/19 03:36:42;;;;;;;5.95;2.20;;;23.30;59.40;;;;;;5090988;28;20039;-76
2023/01/19 03:39:09;;;;;;;3.40;1.80;;;23.30;59.50;;;;;;5091296;28;20031;-76
2023/01/19 03:41:38;;;;;;;5.32;2.15;;;23.40;59.50;;;;;;5091471;28;20033;-76
2023/01/19 03:44:05;;;;;;;3.50;2.22;;;23.30;59.40;;;;;;5090290;28;20032;-76
2023/01/19 03:46:32;;;;;;;7.60;2.65;;;23.30;59.50;;;;;;5091573;28;20032;-76
2023/01/19 03:48:58;;;;;;;6.85;2.40;;;23.40;59.50;;;;;;5091479;28;20069;-76
2023/01/19 03:51:24;;;;;;;6.00;2.10;;;23.50;59.50;;;;;;5091208;28;20111;-76
2023/01/19 03:53:50;;;;;;;6.55;2.53;;;23.40;59.20;;;;;;5090697;28;20036;-76
2023/01/19 03:56:24;;;;;;;8.40;2.30;;;23.50;59.40;;;;;;5090569;28;20035;-76
2023/01/19 03:58:51;;;;;;;6.53;3.42;;;23.40;59.30;;;;;;5091188;28;20039;-77
2023/01/19 04:01:21;;;;;;;10.20;2.65;;;23.50;59.30;;;;;;5091192;28;20111;-76
2023/01/19 04:03:49;;;;;;;10.32;3.13;;;23.50;59.30;;;;;;5090816;28;20055;-76
2023/01/19 04:06:16;;;;;;;8.55;2.40;;;23.50;59.30;;;;;;5090593;28;20521;-76
2023/01/19 04:08:42;;;;;;;16.98;2.90;;;23.50;59.40;;;;;;5090354;28;20056;-76
2023/01/19 04:11:08;;;;;;;7.72;2.20;;;23.50;59.30;;;;;;5090697;28;20036;-76
2023/01/19 04:13:35;;;;;;;9.05;2.58;;;23.40;59.20;;;;;;5091259;28;20036;-76
2023/01/19 04:16:03;;;;;;;10.02;2.70;;;23.50;59.20;;;;;;5090885;28;20039;-77
2023/01/19 04:18:30;;;;;;;9.07;2.33;;;23.50;59.30;;;;;;5091683;28;20064;-76
2023/01/19 04:21:03;;;;;;;7.28;2.38;;;23.60;59.30;;;;;;5094906;28;20044;-76
2023/01/19 04:23:30;;;;;;;8.55;2.08;;;23.40;59.20;;;;;;5071859;28;20436;-76
2023/01/19 04:26:03;;;;;;;13.02;2.78;;;23.50;59.40;;;;;;5055070;28;20441;-76
2023/01/19 04:28:30;;;;;;;13.20;2.65;;;23.50;59.30;;;;;;5071973;28;20036;-76
2023/01/19 04:30:56;;;;;;;12.38;2.15;;;23.40;59.20;;;;;;5071790;28;20489;-76
2023/01/19 04:33:23;;;;;;;7.22;2.60;;;23.50;59.50;;;;;;5072021;28;20095;-76
2023/01/19 04:35:50;;;;;;;10.88;2.55;;;23.60;59.30;;;;;;5071718;28;20119;-76
2023/01/19 04:38:16;;;;;;;4.97;2.28;;;23.60;59.00;;;;;;5071825;28;20136;-77
2023/01/19 04:40:42;;;;;;;11.20;2.92;;;23.60;58.90;;;;;;5071632;28;20082;-76
2023/01/19 04:43:08;;;;;;;12.77;2.70;;;23.70;58.40;;;;;;5071779;28;20036;-76
2023/01/19 04:45:35;;;;;;;10.65;2.33;;;23.60;58.20;;;;;;5054862;28;20425;-76
2023/01/19 04:48:03;;;;;;;14.00;2.63;;;23.60;57.60;;;;;;5054781;28;20068;-76
2023/01/19 04:50:29;;;;;;;12.10;2.47;;;23.60;55.70;;;;;;5074063;28;20071;-77
2023/01/19 04:52:55;;;;;;;6.45;1.75;;;23.60;59.00;;;;;;5072158;28;20052;-77
2023/01/19 04:55:22;;;;;;;9.32;2.92;;;23.60;58.70;;;;;;5090958;28;20551;-77
2023/01/19 04:57:48;;;;;;;9.77;2.53;;;23.50;57.90;;;;;;5094228;28;20035;-77
2023/01/19 05:00:14;;;;;;;12.88;3.38;;;23.60;58.70;;;;;;5093207;28;20059;-78
2023/01/19 05:02:42;;;;;;;18.30;2.95;;;23.50;57.70;;;;;;5092982;28;20036;-80
2023/01/19 05:05:09;;;;;;;11.68;2.33;;;23.60;61.10;;;;;;5094194;28;20036;-76
2023/01/19 05:07:34;;;;;;;13.43;3.80;;;23.70;61.00;;;;;;5094326;28;20181;-76
2023/01/19 05:10:00;;;;;;;10.38;2.63;;;23.90;64.70;;;;;;5093929;28;20032;-78
2023/01/19 05:12:26;;;;;;;13.40;3.03;;;24.10;64.70;;;;;;5092921;28;20065;-76
2023/01/19 05:14:52;;;;;;;16.73;3.17;;;24.30;61.70;;;;;;5093979;28;20040;-79
2023/01/19 05:17:18;;;;;;;12.02;3.40;;;24.20;61.00;;;;;;5093999;28;20043;-80
2023/01/19 05:19:44;;;;;;;14.32;3.22;;;24.30;57.60;;;;;;5093958;28;20036;-78
2023/01/19 05:22:10;;;;;;;14.05;2.60;;;24.20;55.60;;;;;;5093934;28;20024;-75
2023/01/19 05:24:36;;;;;;;14.15;3.40;;;24.20;55.20;;;;;;5093693;28;20035;-77
2023/01/19 05:27:02;;;;;;;15.82;3.15;;;24.20;54.80;;;;;;5093717;28;20085;-77
2023/01/19 05:29:28;;;;;;;14.57;2.97;;;24.10;54.50;;;;;;5092694;28;20476;-77
2023/01/19 05:31:54;;;;;;;14.45;2.67;;;24.10;54.00;;;;;;5092717;28;20096;-77
2023/01/19 05:34:20;;;;;;;14.15;3.13;;;24.10;53.60;;;;;;5091321;28;20492;-77
2023/01/19 05:36:46;;;;;;;10.25;2.75;;;24.10;53.20;;;;;;5093179;28;20053;-77
2023/01/19 05:39:12;;;;;;;22.00;3.83;;;24.10;52.80;;;;;;5093231;28;20036;-76
2023/01/19 05:41:40;;;;;;;13.20;2.80;;;24.20;52.40;;;;;;5093652;28;20109;-79
2023/01/19 05:44:08;;;;;;;14.50;2.63;;;24.10;52.00;;;;;;5092931;28;20032;-77
2023/01/19 05:46:34;;;;;;;16.35;3.00;;;24.00;51.50;;;;;;5092156;28;20028;-78
2023/01/19 05:49:03;;;;;;;18.95;3.55;;;24.10;51.40;;;;;;5093459;28;20093;-76
2023/01/19 05:51:33;;;;;;;19.30;3.63;;;24.00;49.40;;;;;;5091813;28;20419;-77
2023/01/19 05:54:04;;;;;;;18.60;3.78;;;23.90;49.50;;;;;;5092115;28;20036;-77
2023/01/19 05:56:30;;;;;;;17.05;3.40;;;24.00;49.20;;;;;;5093332;28;20056;-78
2023/01/19 05:58:56;;;;;;;22.00;5.40;;;23.80;49.80;;;;;;5093026;28;20032;-79
2023/01/19 06:01:22;;;;;;;24.13;4.75;;;23.90;47.00;;;;;;5093244;28;20034;-75
2023/01/19 06:03:48;;;;;;;17.45;4.18;;;23.80;47.30;;;;;;5092965;28;20028;-75
2023/01/19 06:06:14;;;;;;;23.60;3.53;;;23.70;47.40;;;;;;5075237;28;20095;-75
2023/01/19 06:08:41;;;;;;;22.52;5.20;;;23.70;47.20;;;;;;5092623;28;20044;-76
2023/01/19 06:11:07;;;;;;;16.85;4.13;;;23.70;48.60;;;;;;5092863;28;20477;-76
2023/01/19 06:13:33;;;;;;;23.75;3.47;;;23.70;50.20;;;;;;5092683;28;20040;-76
2023/01/19 06:16:01;;;;;;;23.63;3.50;;;23.70;49.10;;;;;;5092854;28;20024;-77
2023/01/19 06:18:28;;;;;;;18.65;4.95;;;23.80;50.80;;;;;;5092696;28;20539;-77
2023/01/19 06:20:57;;;;;;;24.98;4.65;;;23.80;51.60;;;;;;5092229;28;20485;-77
2023/01/19 06:23:31;;;;;;;21.95;4.60;;;23.70;50.80;;;;;;5092438;28;20036;-77
2023/01/19 06:25:57;;;;;;;16.33;5.35;;;23.80;51.70;;;;;;5092400;28;20472;-75
2023/01/19 06:28:24;;;;;;;17.27;5.82;;;23.80;52.60;;;;;;5092210;28;20039;-76
2023/01/19 06:30:51;;;;;;;19.52;6.28;;;23.80;50.10;;;;;;5092076;28;20036;-78
2023/01/19 06:33:18;;;;;;;23.77;5.90;;;23.70;49.00;;;;;;5092046;28;20028;-77
2023/01/19 06:35:47;;;;;;;16.42;4.65;;;23.70;48.70;;;;;;5092276;28;20032;-77
2023/01/19 06:38:14;;;;;;;20.15;4.50;;;23.70;48.50;;;;;;5089908;28;20710;-80
2023/01/19 06:40:40;;;;;;;22.98;4.78;;;23.70;46.80;;;;;;5090722;28;20126;-78
2023/01/19 06:43:06;;;;;;;15.00;3.92;;;23.60;47.10;;;;;;5092633;28;20040;-81
2023/01/19 06:45:32;;;;;;;23.35;4.25;;;23.70;46.60;;;;;;5090691;28;20024;-81
2023/01/19 06:47:59;;;;;;;16.92;3.20;;;23.70;56.90;;;;;;5090948;28;20067;-74
2023/01/19 06:50:26;;;;;;;16.48;4.05;;;23.70;57.00;;;;;;5091964;28;20063;-73
2023/01/19 06:52:52;;;;;;;12.20;2.95;;;23.70;55.60;;;;;;5092233;28;20043;-74
2023/01/19 06:55:18;;;;;;;13.40;3.20;;;23.70;56.20;;;;;;5092245;28;20036;-77
2023/01/19 06:57:44;;;;;;;24.60;5.13;;;23.70;55.90;;;;;;5092063;28;20119;-75
2023/01/19 07:00:13;;;;;;;11.57;2.95;;;23.70;54.80;;;;;;5092264;28;20103;-76
2023/01/19 07:02:43;;;;;;;19.05;4.18;;;23.70;53.70;;;;;;5091958;28;20051;-83
2023/01/19 07:05:13;;;;;;;25.77;3.63;;;23.60;55.20;;;;;;5092168;28;20442;-77
2023/01/19 07:07:41;;;;;;;19.23;3.65;;;23.70;53.70;;;;;;5091680;28;20361;-77
2023/01/19 07:10:08;;;;;;;21.88;4.05;;;23.60;52.30;;;;;;5091890;28;20036;-77
2023/01/19 07:12:35;;;;;;;14.80;3.22;;;23.60;53.00;;;;;;5091691;28;20048;-81
2023/01/19 07:15:01;;;;;;;12.20;2.13;;;23.70;52.40;;;;;;5092304;28;20028;-79
2023/01/19 07:17:27;;;;;;;6.15;1.75;;;23.60;52.00;;;;;;5091689;28;20024;-79
2023/01/19 07:19:53;;;;;;;12.77;2.67;;;23.70;52.50;;;;;;5091402;28;20040;-75
2023/01/19 07:22:19;;;;;;;17.80;2.45;;;23.60;52.20;;;;;;5091827;28;20504;-80
2023/01/19 07:24:45;;;;;;;18.05;3.35;;;23.70;52.50;;;;;;5090546;28;20036;-76
2023/01/19 07:27:11;;;;;;;17.92;3.40;;;23.80;52.30;;;;;;5097566;28;20023;-76
2023/01/19 07:29:38;;;;;;;20.70;4.63;;;23.70;51.90;;;;;;5102120;28;20036;-76
2023/01/19 07:32:04;;;;;;;15.63;2.95;;;23.80;52.00;;;;;;5089385;28;20040;-77
2023/01/19 07:34:31;;;;;;;4.90;2.28;;;23.80;52.20;;;;;;5101385;28;20197;-75
2023/01/19 07:36:57;;;;;;;8.77;3.17;;;23.70;52.20;;;;;;5108335;28;20032;-78
2023/01/19 07:39:23;;;;;;;22.90;5.32;;;23.70;52.00;;;;;;5099329;28;20039;-77
2023/01/19 07:41:49;;;;;;;20.45;4.57;;;23.80;50.80;;;;;;5092479;28;20033;-79
2023/01/19 07:44:15;;;;;;;10.25;3.55;;;23.80;51.80;;;;;;5108414;28;20369;-75
2023/01/19 07:46:42;;;;;;;14.90;3.75;;;23.80;50.40;;;;;;5108854;28;20119;-76
2023/01/19 07:49:08;;;;;;;9.00;2.60;;;23.80;50.00;;;;;;5096411;28;20540;-76
2023/01/19 07:51:35;;;;;;;16.42;3.45;;;23.60;51.60;;;;;;5088895;28;20043;-82
2023/01/19 07:54:01;;;;;;;16.55;4.18;;;23.60;52.50;;;;;;5090356;28;20151;-79
2023/01/19 07:56:29;;;;;;;19.00;4.55;;;23.70;52.40;;;;;;5092979;28;20134;-76
2023/01/19 07:58:55;;;;;;;21.25;4.68;;;23.60;53.30;;;;;;5096092;28;20110;-78
2023/01/19 08:01:22;;;;;;;10.45;4.20;;;23.70;53.80;;;;;;5113023;28;20112;-76
2023/01/19 08:03:48;;;;;;;19.20;4.05;;;23.70;54.10;;;;;;5101915;28;20655;-75
2023/01/19 08:06:23;;;;;;;24.50;2.97;;;23.60;54.30;;;;;;5092999;28;20032;-77
2023/01/19 08:08:49;;;;;;;13.52;3.40;;;23.80;54.50;;;;;;5092543;28;20504;-74
2023/01/19 08:11:16;;;;;;;12.45;3.08;;;23.80;54.60;;;;;;5092309;28;20097;-77
2023/01/19 08:13:42;;;;;;;15.20;3.60;;;23.70;55.00;;;;;;5092623;28;20058;-76
2023/01/19 08:16:08;;;;;;;16.38;3.20;;;23.70;55.10;;;;;;5092624;28;20077;-74
2023/01/19 08:18:34;;;;;;;16.08;3.90;;;23.80;55.10;;;;;;5095012;28;20052;-76
2023/01/19 08:21:00;;;;;;;19.25;4.03;;;23.80;54.50;;;;;;5095482;28;20036;-75
2023/01/19 08:23:29;;;;;;;11.82;2.97;;;23.90;55.00;;;;;;5093827;28;20032;-73
2023/01/19 08:25:55;;;;;;;14.13;4.20;;;23.70;55.30;;;;;;5094979;28;20031;-74
2023/01/19 08:28:22;;;;;;;13.82;3.65;;;23.90;58.30;;;;;;5095090;28;20465;-79
2023/01/19 08:30:54;;;;;;;16.98;4.55;;;24.20;60.50;;;;;;5093620;28;20123;-78
2023/01/19 08:33:24;;;;;;;12.88;4.35;;;24.50;60.50;;;;;;5100817;28;20036;-74
2023/01/19 08:35:53;;;;;;;26.00;3.75;;;24.70;57.70;;;;;;5114238;28;20055;-77
2023/01/19 08:38:19;;;;;;;13.25;3.13;;;24.70;56.70;;;;;;5115340;28;20032;-77
2023/01/19 08:40:45;;;;;;;15.98;3.08;;;24.50;55.20;;;;;;5115119;28;20028;-78
2023/01/19 08:43:14;;;;;;;10.48;3.45;;;24.50;55.40;;;;;;5115143;28;20092;-78
2023/01/19 08:45:47;;;;;;;14.80;3.90;;;24.50;55.40;;;;;;5115044;28;20032;-78
2023/01/19 08:48:20;;;;;;;9.15;2.75;;;24.40;55.20;;;;;;5115053;28;20042;-76
2023/01/19 08:50:47;;;;;;;14.93;2.78;;;24.40;58.20;;;;;;5114776;28;20049;-76
2023/01/19 08:53:14;;;;;;;12.23;2.63;;;24.40;56.40;;;;;;5115264;28;20055;-77
2023/01/19 08:55:40;;;;;;;6.50;2.60;;;24.30;57.70;;;;;;5115129;27;20031;-75
2023/01/19 08:58:07;;;;;;;14.15;3.15;;;24.30;58.20;;;;;;5115068;28;20019;-78
2023/01/19 09:00:36;;;;;;;5.90;2.88;;;24.30;57.60;;;;;;5112337;28;20032;-76
2023/01/19 09:03:05;;;;;;;16.50;4.05;;;24.30;57.00;;;;;;5112165;28;20123;-77
2023/01/19 09:05:36;;;;;;;16.88;3.67;;;24.30;56.10;;;;;;5110793;28;20425;-76
2023/01/19 09:08:08;;;;;;;3.40;2.58;;;24.40;57.50;;;;;;5111898;28;20056;-78
2023/01/19 09:10:35;;;;;;;12.88;4.50;;;24.30;57.90;;;;;;5110468;28;20075;-76
2023/01/19 09:13:03;;;;;;;11.93;3.28;;;24.40;58.40;;;;;;5111220;28;20053;-76
2023/01/19 09:15:32;;;;;;;15.85;3.88;;;24.30;58.60;;;;;;5112289;28;20408;-77
2023/01/19 09:17:59;;;;;;;13.00;3.15;;;24.30;58.70;;;;;;5112066;28;20027;-79
2023/01/19 09:20:25;;;;;;;18.23;3.22;;;24.40;58.40;;;;;;5092797;28;20082;-77
2023/01/19 09:22:51;;;;;;;9.20;3.08;;;24.20;57.90;;;;;;5091378;28;20082;-77
2023/01/19 09:25:17;;;;;;;12.63;2.75;;;24.30;57.60;;;;;;5089671;28;20732;-75
2023/01/19 09:27:43;;;;;;;10.60;2.97;;;24.20;57.40;;;;;;5090776;28;20040;-76
2023/01/19 09:30:10;;;;;;;9.25;2.60;;;24.20;57.60;;;;;;5090937;28;20048;-74
2023/01/19 09:32:36;;;;;;;10.00;3.08;;;24.20;57.70;;;;;;5089528;28;20065;-74
2023/01/19 09:35:02;;;;;;;5.95;2.63;;;24.20;57.70;;;;;;5110614;28;20040;-75
2023/01/19 09:37:28;;;;;;;17.45;4.50;;;24.30;58.00;;;;;;5114141;28;20114;-74
2023/01/19 09:39:54;;;;;;;11.77;3.47;;;24.30;58.00;;;;;;5104810;28;20528;-75
2023/01/19 09:42:43;;;;;;;11.18;2.63;;;24.10;57.50;;;;;;5093630;28;20364;-75
2023/01/19 09:45:34;;;;;;;13.15;3.05;;;24.10;57.50;;;;;;5092375;28;20039;-75
2023/01/19 09:48:02;;;;;;;15.68;2.67;;;24.10;57.50;;;;;;5092254;28;20381;-76
2023/01/19 09:50:36;;;;;;;9.65;2.88;;;24.10;57.20;;;;;;5093332;28;20036;-75
2023/01/19 09:53:13;;;;;;;16.02;3.95;;;24.30;61.20;;;;;;5093508;28;20067;-76
2023/01/19 09:55:41;;;;;;;21.15;2.97;;;24.20;57.80;;;;;;5092924;28;20028;-77
2023/01/19 09:58:17;;;;;;;9.88;3.95;;;24.40;53.60;;;;;;5092904;28;20081;-77
2023/01/19 10:00:51;;;;;;;9.13;2.38;;;24.50;54.30;;;;;;5092628;28;20534;-75
2023/01/19 10:03:19;;;;;;;12.23;3.08;;;24.40;52.20;;;;;;5093149;28;20040;-76
2023/01/19 10:05:53;;;;;;;11.57;3.72;;;24.50;51.60;;;;;;5093161;28;20036;-77
2023/01/19 10:08:45;;;;;;;9.60;3.63;;;24.40;51.50;;;;;;5092884;28;20066;-77
2023/01/19 10:11:32;;;;;;;8.20;3.63;;;24.60;49.60;;;;;;5092677;28;20028;-75
2023/01/19 10:13:58;;;;;;;13.73;3.42;;;24.50;46.50;;;;;;5093043;28;20059;-75
2023/01/19 10:16:29;;;;;;;12.35;3.30;;;24.60;47.50;;;;;;5092350;28;20036;-76
2023/01/19 10:18:59;;;;;;;19.50;3.40;;;24.40;49.00;;;;;;5091681;28;20079;-76
2023/01/19 10:21:34;;;;;;;20.48;5.22;;;24.50;48.20;;;;;;5092380;28;20039;-78
2023/01/19 10:24:05;;;;;;;19.20;4.80;;;24.40;48.10;;;;;;5091490;28;20032;-75
2023/01/19 10:26:45;;;;;;;15.93;3.65;;;24.40;46.30;;;;;;5092547;28;20059;-75
2023/01/19 10:29:17;;;;;;;12.10;4.15;;;24.40;46.00;;;;;;5092746;28;20120;-76
2023/01/19 10:31:45;;;;;;;8.98;2.42;;;24.40;45.70;;;;;;5092409;28;20032;-75
2023/01/19 10:34:18;;;;;;;16.67;3.00;;;24.30;46.80;;;;;;5105477;28;20035;-77
2023/01/19 10:36:47;;;;;;;15.35;3.65;;;24.30;46.10;;;;;;5112690;28;20115;-79
2023/01/19 10:39:17;;;;;;;8.95;3.88;;;24.10;45.90;;;;;;5112879;28;20126;-77
2023/01/19 10:41:50;;;;;;;8.60;2.78;;;24.20;45.60;;;;;;5112445;28;20035;-79
2023/01/19 10:44:27;;;;;;;15.05;2.92;;;24.10;46.60;;;;;;5112725;28;20023;-78
2023/01/19 10:46:57;;;;;;;15.43;3.25;;;24.30;55.60;;;;;;5112703;28;20047;-76
2023/01/19 10:49:36;;;;;;;10.70;3.47;;;24.30;56.10;;;;;;5089542;28;20044;-76
2023/01/19 10:52:17;;;;;;;16.48;4.65;;;24.50;58.40;;;;;;5089561;28;20373;-77
2023/01/19 10:54:47;;;;;;;6.68;2.97;;;25.10;60.00;;;;;;5089319;28;20036;-76
2023/01/19 10:57:42;;;;;;;12.68;3.15;;;25.60;53.00;;;;;;5089915;28;20519;-79
2023/01/19 11:00:31;;;;;;;9.98;3.30;;;25.30;47.40;;;;;;5089111;28;20040;-78
2023/01/19 11:02:57;;;;;;;10.00;2.38;;;25.10;55.60;;;;;;5089525;28;20543;-80
2023/01/19 11:05:29;;;;;;;12.80;3.72;;;25.00;54.50;;;;;;5047511;28;20131;-79
2023/01/19 11:07:55;;;;;;;14.23;2.85;;;25.00;54.70;;;;;;5052550;28;20084;-78
2023/01/19 11:10:26;;;;;;;14.75;2.90;;;25.00;58.00;;;;;;5068803;28;20044;-80
2023/01/19 11:13:02;;;;;;;9.07;3.10;;;25.10;60.20;;;;;;5059589;28;20098;-78
2023/01/19 11:15:30;;;;;;;13.23;3.88;;;25.20;63.80;;;;;;5061296;28;20090;-78
2023/01/19 11:17:57;;;;;;;8.38;3.30;;;25.50;66.80;;;;;;5069002;28;20433;-78
2023/01/19 11:20:42;;;;;;;9.30;2.53;;;25.50;59.30;;;;;;5079931;28;20035;-79
2023/01/19 11:23:24;;;;;;;11.50;2.03;;;25.40;56.70;;;;;;5090627;28;20039;-77
2023/01/19 11:25:52;;;;;;;19.95;2.42;;;25.40;56.00;;;;;;5091886;28;20031;-79
2023/01/19 11:28:28;;;;;;;13.57;3.95;;;25.30;55.90;;;;;;5090831;28;20028;-76
2023/01/19 11:31:00;;;;;;;9.27;3.33;;;25.20;55.60;;;;;;5072286;28;20045;-78
2023/01/19 11:33:34;;;;;;;8.88;2.60;;;25.10;55.70;;;;;;5090560;28;20063;-76
2023/01/19 11:36:06;;;;;;;8.63;2.40;;;25.10;55.80;;;;;;5088878;28;20028;-77
2023/01/19 11:38:42;;;;;;;6.32;2.92;;;25.00;55.90;;;;;;5091395;28;20609;-78
2023/01/19 11:41:16;;;;;;;7.72;1.80;;;25.00;55.60;;;;;;5091468;28;20027;-78
2023/01/19 11:43:43;;;;;;;9.13;2.83;;;25.00;56.00;;;;;;5089631;28;20097;-77
2023/01/19 11:46:12;;;;;;;10.65;2.47;;;25.00;56.90;;;;;;5090070;28;20122;-78
2023/01/19 11:49:00;;;;;;;15.57;2.75;;;25.00;61.60;;;;;;5091227;28;20066;-77
2023/01/19 11:52:06;;;;;;;10.68;2.92;;;25.30;64.20;;;;;;5089971;28;20733;-78
2023/01/19 11:54:44;;;;;;;20.35;3.33;;;25.40;60.40;;;;;;5028231;28;20050;-78
2023/01/19 11:57:14;;;;;;;14.90;3.33;;;25.50;62.30;;;;;;5028270;28;20124;-80
2023/01/19 11:59:40;;;;;;;12.60;2.72;;;25.60;57.70;;;;;;5028138;28;20137;-78
2023/01/19 12:02:20;;;;;;;16.05;2.92;;;25.40;56.40;;;;;;5027969;28;20146;-77
2023/01/19 12:04:48;;;;;;;16.70;3.20;;;25.30;56.20;;;;;;5028761;28;20045;-78
2023/01/19 12:07:19;;;;;;;12.77;3.15;;;25.30;56.20;;;;;;5028572;28;20061;-79
2023/01/19 12:09:50;;;;;;;14.55;4.00;;;25.20;56.50;;;;;;5028771;28;20046;-82
2023/01/19 12:12:29;;;;;;;12.95;3.97;;;25.20;56.40;;;;;;5028353;28;20065;-75
2023/01/19 12:15:21;;;;;;;21.38;3.42;;;25.10;56.30;;;;;;5028512;28;20046;-76
2023/01/19 12:17:53;;;;;;;10.88;2.60;;;25.00;56.40;;;;;;5011967;28;20383;-79
2023/01/19 12:20:40;;;;;;;16.08;2.97;;;25.10;56.40;;;;;;5028617;28;20063;-76
2023/01/19 12:23:47;;;;;;;17.98;2.25;;;25.00;56.40;;;;;;5028705;28;20029;-79
2023/01/19 12:26:27;;;;;;;17.65;3.08;;;24.90;56.20;;;;;;5028116;28;20040;-78
2023/01/19 12:28:57;;;;;;;11.77;2.42;;;25.00;56.40;;;;;;5028437;28;20041;-79
2023/01/19 12:31:24;;;;;;;7.78;2.38;;;24.90;56.30;;;;;;5045024;28;20044;-79
2023/01/19 12:33:50;;;;;;;7.63;3.08;;;24.80;56.20;;;;;;5070707;28;20060;-80
2023/01/19 12:36:25;;;;;;;8.25;2.65;;;24.80;56.40;;;;;;5070907;28;20369;-75
2023/01/19 12:39:15;;;;;;;11.43;2.97;;;24.90;56.50;;;;;;5070887;28;20028;-76
2023/01/19 12:41:42;;;;;;;9.60;3.17;;;24.70;56.40;;;;;;5090234;28;20116;-77
2023/01/19 12:44:11;;;;;;;15.02;3.40;;;24.70;56.20;;;;;;5094686;28;20028;-81
2023/01/19 12:46:45;;;;;;;15.25;3.55;;;24.70;53.60;;;;;;5094655;28;20495;-80
2023/01/19 12:49:28;;;;;;;10.63;3.47;;;24.80;52.00;;;;;;5094757;28;20020;-78
2023/01/19 12:52:20;;;;;;;18.88;3.97;;;24.80;52.60;;;;;;5094953;28;20040;-81
2023/01/19 12:55:13;;;;;;;12.48;2.67;;;25.00;58.40;;;;;;5051549;28;20045;-76
2023/01/19 12:57:39;;;;;;;20.13;3.55;;;25.00;57.00;;;;;;5051466;28;20043;-79
2023/01/19 13:00:28;;;;;;;18.92;3.75;;;24.90;56.90;;;;;;5051627;28;20055;-79
2023/01/19 13:02:56;;;;;;;16.50;3.08;;;24.90;57.10;;;;;;5034434;28;20053;-78